Time;durP1;ratioP1;P1;durP2;ratioP2;P2;SDS_P1;SDS_P2;PMS_P1;PMS_P2;Temp;Humidity;BMP_temperature;BMP_pressure;BME280_temperature;BME280_humidity;BME280_pressure;Samples;Min_cycle;Max_cycle;Signal;HPM_P1;HPM_P2
2023/09/08 00:00:30;;;;;;;8.55;3.55;;;;;;;;;;4923017;28;20055;-83
2023/09/08 00:02:58;;;;;;;7.38;3.35;;;;;;;;;;4924593;29;20398;-84
2023/09/08 00:05:27;;;;;;;4.60;2.90;;;;;;;;;;4922326;29;20051;-83
2023/09/08 00:07:55;;;;;;;4.75;3.15;;;;;;;;;;4924422;29;20052;-83
2023/09/08 00:10:24;;;;;;;6.80;3.28;;;;;;;;;;4925766;28;20464;-83
2023/09/08 00:12:52;;;;;;;7.30;2.83;;;;;;;;;;4925937;29;20047;-83
2023/09/08 00:15:22;;;;;;;5.53;3.03;;;;;;;;;;4921209;29;20524;-83
2023/09/08 00:17:50;;;;;;;4.68;3.10;;;;;;;;;;4925945;29;20128;-83
2023/09/08 00:20:19;;;;;;;10.35;3.25;;;;;;;;;;4925602;29;20047;-83
2023/09/08 00:22:47;;;;;;;5.13;3.03;;;;;;;;;;4923571;29;20056;-83
2023/09/08 00:25:16;;;;;;;7.22;3.30;;;;;;;;;;4923147;29;20048;-83
2023/09/08 00:27:44;;;;;;;11.73;4.00;;;;;;;;;;4921094;29;20659;-83
2023/09/08 00:30:13;;;;;;;6.45;3.33;;;;;;;;;;4922810;28;20055;-83
2023/09/08 00:32:43;;;;;;;5.93;3.45;;;;;;;;;;4924230;29;20059;-83
2023/09/08 00:35:13;;;;;;;6.35;3.55;;;;;;;;;;4926395;29;20063;-83
2023/09/08 00:37:42;;;;;;;5.97;3.30;;;;;;;;;;4922713;29;20048;-83
2023/09/08 00:40:11;;;;;;;5.63;3.38;;;;;;;;;;4924731;28;20055;-83
2023/09/08 00:42:39;;;;;;;7.57;3.03;;;;;;;;;;4924931;29;20054;-83
2023/09/08 00:45:08;;;;;;;5.22;3.10;;;;;;;;;;4924047;29;20047;-83
2023/09/08 00:47:36;;;;;;;5.85;3.30;;;;;;;;;;4925912;29;20615;-83
2023/09/08 00:50:07;;;;;;;6.65;3.55;;;;;;;;;;4925421;29;20054;-83
2023/09/08 00:52:35;;;;;;;7.10;3.33;;;;;;;;;;4922896;29;20162;-83
2023/09/08 00:55:04;;;;;;;5.00;3.55;;;;;;;;;;4921768;29;20365;-83
2023/09/08 00:57:32;;;;;;;7.53;3.38;;;;;;;;;;4925310;29;20513;-84
2023/09/08 01:00:03;;;;;;;6.43;3.53;;;;;;;;;;4925052;28;20051;-83
2023/09/08 01:02:31;;;;;;;5.95;3.22;;;;;;;;;;4926185;29;20517;-84
2023/09/08 01:05:00;;;;;;;6.00;3.08;;;;;;;;;;4925995;29;20040;-83
2023/09/08 01:07:31;;;;;;;5.43;3.28;;;;;;;;;;4922012;29;20060;-83
2023/09/08 01:10:04;;;;;;;4.97;3.33;;;;;;;;;;4921214;28;20079;-83
2023/09/08 01:12:33;;;;;;;5.90;3.63;;;;;;;;;;4924111;29;20509;-83
2023/09/08 01:15:01;;;;;;;5.22;3.60;;;;;;;;;;4922393;29;20489;-84
2023/09/08 01:17:30;;;;;;;6.70;4.00;;;;;;;;;;4926517;29;20079;-84
2023/09/08 01:20:00;;;;;;;6.38;3.90;;;;;;;;;;4921109;28;20139;-84
2023/09/08 01:22:36;;;;;;;6.65;4.00;;;;;;;;;;4922419;29;20094;-84
2023/09/08 01:25:14;;;;;;;8.15;3.15;;;;;;;;;;4920330;29;20051;-84
2023/09/08 01:27:48;;;;;;;7.18;3.25;;;;;;;;;;4921521;29;20188;-84
2023/09/08 01:30:17;;;;;;;6.10;3.53;;;;;;;;;;4924962;28;20056;-84
2023/09/08 01:32:46;;;;;;;4.80;3.22;;;;;;;;;;4926344;29;20052;-84
2023/09/08 01:35:15;;;;;;;5.88;3.60;;;;;;;;;;4924449;29;20051;-83
2023/09/08 01:37:45;;;;;;;5.72;3.30;;;;;;;;;;4921379;29;20051;-84
2023/09/08 01:40:15;;;;;;;6.50;3.50;;;;;;;;;;4927552;28;20127;-84
2023/09/08 01:42:44;;;;;;;7.15;3.83;;;;;;;;;;4922684;29;20436;-84
2023/09/08 01:45:13;;;;;;;7.60;3.90;;;;;;;;;;4928889;29;20449;-84
2023/09/08 01:47:41;;;;;;;6.85;3.88;;;;;;;;;;4925395;29;20047;-84
2023/09/08 01:50:10;;;;;;;6.38;3.67;;;;;;;;;;4929199;28;20134;-84
2023/09/08 01:52:38;;;;;;;7.55;3.85;;;;;;;;;;4925659;29;20419;-84
2023/09/08 01:55:08;;;;;;;5.25;3.20;;;;;;;;;;4925493;29;20080;-83
2023/09/08 01:57:38;;;;;;;6.75;3.38;;;;;;;;;;4928339;29;20166;-84
2023/09/08 02:00:07;;;;;;;5.47;3.30;;;;;;;;;;4920969;28;20174;-84
2023/09/08 02:02:35;;;;;;;6.47;3.70;;;;;;;;;;4927803;29;20592;-84
2023/09/08 02:05:04;;;;;;;5.78;2.75;;;;;;;;;;4926372;29;20048;-84
2023/09/08 02:07:33;;;;;;;7.53;3.42;;;;;;;;;;4926661;29;20115;-84
2023/09/08 02:10:01;;;;;;;6.25;3.55;;;;;;;;;;4925847;28;20398;-84
2023/09/08 02:12:30;;;;;;;6.65;4.20;;;;;;;;;;4926149;29;20052;-84
2023/09/08 02:15:00;;;;;;;5.55;3.63;;;;;;;;;;4927282;29;20079;-84
2023/09/08 02:17:29;;;;;;;8.00;3.17;;;;;;;;;;4926202;29;20052;-84
2023/09/08 02:19:57;;;;;;;7.03;3.83;;;;;;;;;;4923778;29;20071;-84
2023/09/08 02:22:26;;;;;;;5.10;3.42;;;;;;;;;;4926698;29;20070;-84
2023/09/08 02:24:56;;;;;;;6.50;3.80;;;;;;;;;;4926584;29;20059;-83
2023/09/08 02:27:25;;;;;;;7.43;3.90;;;;;;;;;;4927209;29;20056;-84
2023/09/08 02:29:53;;;;;;;5.80;3.25;;;;;;;;;;4927470;28;20055;-84
2023/09/08 02:32:23;;;;;;;5.68;3.33;;;;;;;;;;4924829;29;20146;-83
2023/09/08 02:34:52;;;;;;;7.60;4.22;;;;;;;;;;4926781;29;20043;-84
2023/09/08 02:37:21;;;;;;;7.15;4.00;;;;;;;;;;4927515;29;20493;-84
2023/09/08 02:39:50;;;;;;;8.20;4.38;;;;;;;;;;4923814;28;20040;-85
2023/09/08 02:42:18;;;;;;;6.35;3.45;;;;;;;;;;4927294;29;20461;-84
2023/09/08 02:44:46;;;;;;;8.05;4.32;;;;;;;;;;4923304;29;20079;-83
2023/09/08 02:47:15;;;;;;;6.75;4.10;;;;;;;;;;4922348;29;20150;-84
2023/09/08 02:49:44;;;;;;;6.38;3.80;;;;;;;;;;4924915;28;20481;-83
2023/09/08 02:52:13;;;;;;;5.30;3.65;;;;;;;;;;4925183;29;20047;-84
2023/09/08 02:54:41;;;;;;;8.20;3.72;;;;;;;;;;4927084;29;20098;-84
2023/09/08 02:57:10;;;;;;;6.00;3.80;;;;;;;;;;4922739;29;20564;-84
2023/09/08 02:59:38;;;;;;;5.82;3.35;;;;;;;;;;4924917;28;20095;-84
2023/09/08 03:02:07;;;;;;;6.53;3.67;;;;;;;;;;4922236;29;20409;-84
2023/09/08 03:04:35;;;;;;;7.25;4.20;;;;;;;;;;4926908;29;20056;-85
2023/09/08 03:07:05;;;;;;;7.15;4.00;;;;;;;;;;4923431;29;20308;-84
2023/09/08 03:09:35;;;;;;;6.00;3.55;;;;;;;;;;4924414;28;20055;-84
2023/09/08 03:12:03;;;;;;;6.90;4.32;;;;;;;;;;4924957;29;20107;-85
2023/09/08 03:14:32;;;;;;;6.53;3.50;;;;;;;;;;4927332;29;20352;-84
2023/09/08 03:17:00;;;;;;;6.60;3.90;;;;;;;;;;4927414;29;20051;-84
2023/09/08 03:19:28;;;;;;;7.82;3.60;;;;;;;;;;4926125;28;20568;-84
2023/09/08 03:21:57;;;;;;;6.22;3.95;;;;;;;;;;4923953;29;20048;-84
2023/09/08 03:24:27;;;;;;;6.70;3.78;;;;;;;;;;4925382;29;20048;-84
2023/09/08 03:26:56;;;;;;;6.15;3.83;;;;;;;;;;4924686;29;20331;-84
2023/09/08 03:29:24;;;;;;;6.78;3.80;;;;;;;;;;4924606;29;20135;-84
2023/09/08 03:31:53;;;;;;;5.97;3.85;;;;;;;;;;4922107;29;20063;-84
2023/09/08 03:34:21;;;;;;;6.55;3.72;;;;;;;;;;4925892;29;20564;-85
2023/09/08 03:36:50;;;;;;;6.38;3.78;;;;;;;;;;4926104;29;20052;-85
2023/09/08 03:39:19;;;;;;;6.40;3.58;;;;;;;;;;4925099;29;20055;-85
2023/09/08 03:41:49;;;;;;;7.50;4.05;;;;;;;;;;4924203;29;20090;-84
2023/09/08 03:44:17;;;;;;;9.45;4.45;;;;;;;;;;4923548;29;20052;-85
2023/09/08 03:46:46;;;;;;;8.13;4.53;;;;;;;;;;4924120;29;20070;-85
2023/09/08 03:49:15;;;;;;;7.18;3.53;;;;;;;;;;4924604;29;20122;-84
2023/09/08 03:51:43;;;;;;;6.88;3.85;;;;;;;;;;4926521;28;20366;-85
2023/09/08 03:54:12;;;;;;;7.45;4.18;;;;;;;;;;4923830;29;20122;-85
2023/09/08 03:56:40;;;;;;;7.38;4.20;;;;;;;;;;4923952;29;20768;-85
2023/09/08 03:59:10;;;;;;;7.72;4.45;;;;;;;;;;4918084;29;20058;-84
2023/09/08 04:01:38;;;;;;;7.03;4.53;;;;;;;;;;4922720;28;20496;-85
2023/09/08 04:04:07;;;;;;;6.78;4.07;;;;;;;;;;4925834;29;20149;-85
2023/09/08 04:06:35;;;;;;;7.40;3.75;;;;;;;;;;4927242;29;20063;-85
2023/09/08 04:09:04;;;;;;;6.78;3.80;;;;;;;;;;4923341;29;20075;-84
2023/09/08 04:11:32;;;;;;;8.10;3.97;;;;;;;;;;4922485;28;20146;-84
2023/09/08 04:14:01;;;;;;;7.63;3.72;;;;;;;;;;4924068;29;20373;-85
2023/09/08 04:16:31;;;;;;;14.85;4.30;;;;;;;;;;4925689;29;20059;-85
2023/09/08 04:18:59;;;;;;;6.00;3.60;;;;;;;;;;4925855;29;20071;-85
2023/09/08 04:21:28;;;;;;;7.18;3.70;;;;;;;;;;4924145;28;20047;-85
2023/09/08 04:23:56;;;;;;;7.03;3.92;;;;;;;;;;4924595;29;20082;-85
2023/09/08 04:26:25;;;;;;;7.68;4.25;;;;;;;;;;4923378;29;20076;-85
2023/09/08 04:28:53;;;;;;;6.53;3.70;;;;;;;;;;4924925;29;20516;-86
2023/09/08 04:31:22;;;;;;;6.53;4.22;;;;;;;;;;4924143;29;20114;-86
2023/09/08 04:33:53;;;;;;;9.05;3.90;;;;;;;;;;4924399;29;20066;-85
2023/09/08 04:36:21;;;;;;;8.63;4.35;;;;;;;;;;4922762;29;20055;-85
2023/09/08 04:38:50;;;;;;;10.40;4.00;;;;;;;;;;4918159;29;20119;-85
2023/09/08 04:41:18;;;;;;;7.32;4.13;;;;;;;;;;4923686;29;20056;-86
2023/09/08 04:43:47;;;;;;;8.40;4.60;;;;;;;;;;4925543;29;20047;-86
2023/09/08 04:46:15;;;;;;;7.95;4.38;;;;;;;;;;4923845;29;20051;-86
2023/09/08 04:48:43;;;;;;;8.07;4.63;;;;;;;;;;4925425;29;20424;-85
2023/09/08 04:51:13;;;;;;;7.65;4.00;;;;;;;;;;4921780;28;20056;-87
2023/09/08 04:53:42;;;;;;;7.15;4.05;;;;;;;;;;4924230;29;20056;-86
2023/09/08 04:56:10;;;;;;;8.55;4.03;;;;;;;;;;4921350;29;20048;-86
2023/09/08 04:58:39;;;;;;;7.85;4.05;;;;;;;;;;4919888;29;20123;-85
2023/09/08 05:01:07;;;;;;;6.60;3.83;;;;;;;;;;4918971;29;20055;-86
2023/09/08 05:03:35;;;;;;;9.95;3.80;;;;;;;;;;4922807;29;20044;-86
2023/09/08 05:06:04;;;;;;;9.45;4.00;;;;;;;;;;4922722;29;20039;-88
2023/09/08 05:08:34;;;;;;;7.68;3.83;;;;;;;;;;4918155;29;20063;-86
2023/09/08 05:11:03;;;;;;;7.95;3.80;;;;;;;;;;4924972;28;20054;-85
2023/09/08 05:13:31;;;;;;;9.07;4.70;;;;;;;;;;4924453;29;20075;-86
2023/09/08 05:16:10;;;;;;;6.13;3.38;;;;;;;;;;4928925;29;20048;-86
2023/09/08 05:18:40;;;;;;;9.02;4.03;;;;;;;;;;4924316;29;20750;-86
2023/09/08 05:21:08;;;;;;;7.47;3.72;;;;;;;;;;4922233;28;20143;-86
2023/09/08 05:23:38;;;;;;;8.35;4.05;;;;;;;;;;4924849;29;20087;-85
2023/09/08 05:26:07;;;;;;;8.52;4.20;;;;;;;;;;4917020;29;20567;-85
2023/09/08 05:28:35;;;;;;;9.82;4.38;;;;;;;;;;4924912;29;20462;-85
2023/09/08 05:31:06;;;;;;;11.60;4.40;;;;;;;;;;4924005;29;20469;-85
2023/09/08 05:33:35;;;;;;;9.52;4.28;;;;;;;;;;4921708;29;20069;-87
2023/09/08 05:36:04;;;;;;;6.78;4.00;;;;;;;;;;4924890;29;20498;-86
2023/09/08 05:38:32;;;;;;;9.73;4.38;;;;;;;;;;4925835;29;20115;-86
2023/09/08 05:41:03;;;;;;;10.48;4.78;;;;;;;;;;4912465;28;20289;-87
2023/09/08 05:43:31;;;;;;;10.77;4.78;;;;;;;;;;4921893;29;20099;-87
2023/09/08 05:46:00;;;;;;;8.88;4.45;;;;;;;;;;4926788;29;20118;-87
2023/09/08 05:48:29;;;;;;;14.85;4.35;;;;;;;;;;4927825;29;20449;-86
2023/09/08 05:50:58;;;;;;;8.77;4.57;;;;;;;;;;4921062;29;20531;-86
2023/09/08 05:53:26;;;;;;;7.07;4.22;;;;;;;;;;4927320;29;20056;-87
2023/09/08 05:55:55;;;;;;;9.55;4.55;;;;;;;;;;4924085;29;20055;-87
2023/09/08 05:58:27;;;;;;;7.72;4.15;;;;;;;;;;4928661;29;20047;-87
2023/09/08 06:00:55;;;;;;;9.05;4.22;;;;;;;;;;4920216;29;20051;-86
2023/09/08 06:03:24;;;;;;;10.25;4.95;;;;;;;;;;4928921;29;20055;-86
2023/09/08 06:05:53;;;;;;;13.25;4.43;;;;;;;;;;4928370;29;20051;-86
2023/09/08 06:08:21;;;;;;;8.40;4.28;;;;;;;;;;4926664;29;20481;-86
2023/09/08 06:10:50;;;;;;;10.30;4.78;;;;;;;;;;4922752;28;20111;-86
2023/09/08 06:13:18;;;;;;;7.47;4.15;;;;;;;;;;4927634;29;20047;-86
2023/09/08 06:15:48;;;;;;;7.80;4.38;;;;;;;;;;4924904;29;20058;-86
2023/09/08 06:18:16;;;;;;;11.75;4.35;;;;;;;;;;4928526;29;20051;-86
2023/09/08 06:20:45;;;;;;;9.68;4.43;;;;;;;;;;4921415;28;20048;-86
2023/09/08 06:23:14;;;;;;;10.63;4.53;;;;;;;;;;4925191;29;20051;-87
2023/09/08 06:25:43;;;;;;;7.65;4.28;;;;;;;;;;4923943;29;20048;-87
2023/09/08 06:28:11;;;;;;;9.82;4.47;;;;;;;;;;4927383;29;20044;-86
2023/09/08 06:30:41;;;;;;;9.45;4.97;;;;;;;;;;4921713;29;20051;-88
2023/09/08 06:33:11;;;;;;;14.30;5.43;;;;;;;;;;4924599;29;20585;-88
2023/09/08 06:35:40;;;;;;;7.43;4.45;;;;;;;;;;4925552;29;20123;-86
2023/09/08 06:38:08;;;;;;;10.73;4.60;;;;;;;;;;4921211;29;20083;-86
2023/09/08 06:40:37;;;;;;;9.48;4.82;;;;;;;;;;4921803;29;20059;-85
2023/09/08 06:43:05;;;;;;;9.43;5.32;;;;;;;;;;4927610;29;20074;-86
2023/09/08 06:45:34;;;;;;;11.50;4.80;;;;;;;;;;4924662;29;20111;-86
2023/09/08 06:48:02;;;;;;;10.30;5.10;;;;;;;;;;4927384;29;20054;-85
2023/09/08 06:50:32;;;;;;;11.57;6.55;;;;;;;;;;4924114;29;20060;-85
2023/09/08 06:53:01;;;;;;;8.82;4.80;;;;;;;;;;4926185;29;20131;-86
2023/09/08 06:55:29;;;;;;;12.35;5.15;;;;;;;;;;4924483;29;20051;-84
2023/09/08 06:57:58;;;;;;;7.70;5.30;;;;;;;;;;4922997;29;20055;-83
2023/09/08 07:00:26;;;;;;;13.10;6.57;;;;;;;;;;4917062;28;20052;-82
2023/09/08 07:02:55;;;;;;;11.93;6.25;;;;;;;;;;4921561;29;20052;-85
2023/09/08 07:05:23;;;;;;;12.73;5.80;;;;;;;;;;4925881;29;20127;-84
2023/09/08 07:07:53;;;;;;;14.68;6.78;;;;;;;;;;4919985;29;20183;-84
2023/09/08 07:10:22;;;;;;;11.13;6.07;;;;;;;;;;4923712;28;20352;-85
2023/09/08 07:12:50;;;;;;;16.63;7.18;;;;;;;;;;4923896;29;20507;-84
2023/09/08 07:15:19;;;;;;;26.00;6.75;;;;;;;;;;4921854;29;20123;-84
2023/09/08 07:17:47;;;;;;;11.65;6.07;;;;;;;;;;4921808;29;20505;-83
2023/09/08 07:20:17;;;;;;;12.88;6.38;;;;;;;;;;4924835;28;20062;-83
2023/09/08 07:22:46;;;;;;;10.95;6.13;;;;;;;;;;4923309;29;20044;-84
2023/09/08 07:25:16;;;;;;;12.25;6.22;;;;;;;;;;4925077;29;20039;-84
2023/09/08 07:27:45;;;;;;;10.55;6.03;;;;;;;;;;4926150;29;20060;-84
2023/09/08 07:30:14;;;;;;;10.15;5.93;;;;;;;;;;4925712;28;20481;-86
2023/09/08 07:32:44;;;;;;;12.88;6.13;;;;;;;;;;4925362;29;20099;-84
2023/09/08 07:35:14;;;;;;;12.45;6.90;;;;;;;;;;4927187;29;20158;-84
2023/09/08 07:37:43;;;;;;;12.18;6.88;;;;;;;;;;4922784;29;20036;-85
2023/09/08 07:40:12;;;;;;;13.35;6.75;;;;;;;;;;4920692;28;20048;-85
2023/09/08 07:42:42;;;;;;;10.98;5.70;;;;;;;;;;4925096;29;20062;-85
2023/09/08 07:45:10;;;;;;;14.35;7.53;;;;;;;;;;4921460;29;20051;-86
2023/09/08 07:47:39;;;;;;;13.30;6.55;;;;;;;;;;4922524;29;20059;-85
2023/09/08 07:50:21;;;;;;;10.60;6.70;;;;;;;;;;4921276;28;20044;-85
2023/09/08 07:52:49;;;;;;;17.40;7.07;;;;;;;;;;4920193;29;20051;-85
2023/09/08 07:55:18;;;;;;;14.60;6.20;;;;;;;;;;4924443;29;20067;-86
2023/09/08 07:57:48;;;;;;;12.38;6.75;;;;;;;;;;4923646;29;20056;-85
2023/09/08 08:00:17;;;;;;;12.93;6.60;;;;;;;;;;4924786;28;20091;-86
2023/09/08 08:02:47;;;;;;;14.55;6.15;;;;;;;;;;4920365;29;20056;-85
2023/09/08 08:05:15;;;;;;;9.65;6.25;;;;;;;;;;4923588;29;20044;-86
2023/09/08 08:07:44;;;;;;;15.57;6.88;;;;;;;;;;4926091;29;20043;-86
2023/09/08 08:10:13;;;;;;;11.55;6.63;;;;;;;;;;4921244;28;20563;-86
2023/09/08 08:12:42;;;;;;;14.55;6.65;;;;;;;;;;4925902;29;20047;-86
2023/09/08 08:15:12;;;;;;;12.85;7.18;;;;;;;;;;4918281;29;20623;-86
2023/09/08 08:17:41;;;;;;;13.18;7.40;;;;;;;;;;4923967;29;20063;-87
2023/09/08 08:20:17;;;;;;;10.35;6.45;;;;;;;;;;4921061;28;20066;-87
2023/09/08 08:22:46;;;;;;;10.32;5.80;;;;;;;;;;4924461;29;20050;-88
2023/09/08 08:25:15;;;;;;;10.45;6.00;;;;;;;;;;4922317;29;20073;-87
2023/09/08 08:27:44;;;;;;;14.18;6.00;;;;;;;;;;4920672;29;20044;-89
2023/09/08 08:30:14;;;;;;;12.27;5.70;;;;;;;;;;4919583;28;20058;-89
2023/09/08 08:32:43;;;;;;;11.00;6.10;;;;;;;;;;4924124;29;20063;-88
2023/09/08 08:35:11;;;;;;;9.30;5.53;;;;;;;;;;4921140;29;20134;-90
2023/09/08 08:37:42;;;;;;;9.32;5.38;;;;;;;;;;4924705;29;20054;-90
2023/09/08 08:40:12;;;;;;;13.15;6.75;;;;;;;;;;4922816;28;20390;-90
2023/09/08 08:42:41;;;;;;;17.42;8.48;;;;;;;;;;4923711;29;20059;-87
2023/09/08 08:45:11;;;;;;;11.73;6.55;;;;;;;;;;4919618;29;20044;-88
2023/09/08 08:47:43;;;;;;;10.10;5.90;;;;;;;;;;4926726;29;20498;-89
2023/09/08 08:50:12;;;;;;;11.23;6.30;;;;;;;;;;4926580;29;20501;-89
2023/09/08 08:52:40;;;;;;;9.63;6.07;;;;;;;;;;4926811;29;20044;-89
2023/09/08 08:55:09;;;;;;;13.93;6.60;;;;;;;;;;4927455;29;20050;-89
2023/09/08 08:57:38;;;;;;;9.95;5.80;;;;;;;;;;4929682;29;20055;-90
2023/09/08 09:00:09;;;;;;;11.25;5.88;;;;;;;;;;4929674;28;20536;-93
2023/09/08 09:02:38;;;;;;;10.90;5.55;;;;;;;;;;4925486;29;20529;-92
2023/09/08 09:05:08;;;;;;;13.35;6.07;;;;;;;;;;4926384;29;20047;-88
2023/09/08 09:07:37;;;;;;;12.23;6.00;;;;;;;;;;4928898;29;20059;-92
2023/09/08 09:10:07;;;;;;;9.50;5.65;;;;;;;;;;4926865;28;20051;-90
2023/09/08 09:12:35;;;;;;;15.57;7.03;;;;;;;;;;4929900;29;20055;-89
2023/09/08 09:15:05;;;;;;;8.93;5.60;;;;;;;;;;4925846;29;20103;-89
2023/09/08 09:17:35;;;;;;;13.63;6.65;;;;;;;;;;4927571;29;20175;-89
2023/09/08 09:20:18;;;;;;;8.93;5.45;;;;;;;;;;4929611;28;20070;-90
2023/09/08 09:22:49;;;;;;;8.45;5.28;;;;;;;;;;4925104;29;20055;-89
2023/09/08 09:25:24;;;;;;;12.27;5.47;;;;;;;;;;4927246;29;20048;-89
2023/09/08 09:27:54;;;;;;;11.27;5.13;;;;;;;;;;4924328;29;20126;-89
2023/09/08 09:30:23;;;;;;;13.27;5.95;;;;;;;;;;4927290;28;20386;-90
2023/09/08 09:32:59;;;;;;;10.18;5.32;;;;;;;;;;4926331;29;20051;-91
2023/09/08 09:35:41;;;;;;;14.23;5.75;;;;;;;;;;4931202;29;20071;-95
2023/09/08 09:38:11;;;;;;;8.95;5.03;;;;;;;;;;4929716;29;20047;-90
2023/09/08 09:40:39;;;;;;;10.85;5.15;;;;;;;;;;4925002;29;20060;-89
2023/09/08 09:43:08;;;;;;;9.00;5.50;;;;;;;;;;4925794;29;20066;-91
2023/09/08 09:45:37;;;;;;;12.40;5.93;;;;;;;;;;4925638;29;20064;-95
2023/09/08 09:48:07;;;;;;;10.63;5.35;;;;;;;;;;4925854;29;20094;-89
2023/09/08 09:50:36;;;;;;;9.65;5.22;;;;;;;;;;4925956;28;20146;-90
2023/09/08 09:53:10;;;;;;;9.23;5.30;;;;;;;;;;4930291;29;20058;-91
2023/09/08 09:55:40;;;;;;;13.63;5.38;;;;;;;;;;4926279;29;20454;-90
2023/09/08 09:58:10;;;;;;;6.90;4.78;;;;;;;;;;4926336;29;20098;-91
2023/09/08 10:00:40;;;;;;;8.73;5.30;;;;;;;;;;4921662;29;20056;-91
2023/09/08 10:03:11;;;;;;;12.85;5.50;;;;;;;;;;4922030;29;20556;-91
2023/09/08 10:05:39;;;;;;;11.82;6.30;;;;;;;;;;4922357;29;20047;-95
2023/09/08 10:08:08;;;;;;;10.43;5.68;;;;;;;;;;4928058;29;20047;-90
2023/09/08 10:10:37;;;;;;;9.50;5.20;;;;;;;;;;4926890;28;20052;-90
2023/09/08 10:13:08;;;;;;;9.65;5.35;;;;;;;;;;4923520;29;20051;-90
2023/09/08 10:15:37;;;;;;;7.55;4.65;;;;;;;;;;4921872;29;20433;-90
2023/09/08 10:18:06;;;;;;;10.85;5.55;;;;;;;;;;4925319;29;20047;-90
2023/09/08 10:20:36;;;;;;;7.80;5.03;;;;;;;;;;4923174;28;20480;-89
2023/09/08 10:23:09;;;;;;;8.13;4.85;;;;;;;;;;4923843;29;20406;-89
2023/09/08 10:25:41;;;;;;;8.93;5.07;;;;;;;;;;4920654;29;20367;-91
2023/09/08 10:28:11;;;;;;;9.45;4.80;;;;;;;;;;4924978;29;20110;-93
2023/09/08 10:30:40;;;;;;;9.50;4.63;;;;;;;;;;4921488;29;20123;-87
2023/09/08 10:33:09;;;;;;;7.93;4.95;;;;;;;;;;4919771;29;20051;-89
2023/09/08 10:35:38;;;;;;;12.95;5.32;;;;;;;;;;4920605;29;20191;-90
2023/09/08 10:38:22;;;;;;;8.90;4.32;;;;;;;;;;4926471;29;20135;-92
2023/09/08 10:40:50;;;;;;;9.52;4.88;;;;;;;;;;4915626;28;20063;-91
2023/09/08 10:43:21;;;;;;;8.40;5.43;;;;;;;;;;4925842;29;20062;-89
2023/09/08 10:45:49;;;;;;;8.25;4.88;;;;;;;;;;4922607;29;20051;-88
2023/09/08 10:48:18;;;;;;;8.52;5.18;;;;;;;;;;4926466;29;20159;-87
2023/09/08 10:50:46;;;;;;;8.52;5.47;;;;;;;;;;4923955;28;20142;-93
2023/09/08 10:53:16;;;;;;;8.88;5.88;;;;;;;;;;4918099;29;20043;-88
2023/09/08 10:55:47;;;;;;;9.23;5.40;;;;;;;;;;4928102;29;20052;-91
2023/09/08 10:58:38;;;;;;;6.55;4.18;;;;;;;;;;4925010;29;20513;-88
2023/09/08 11:01:07;;;;;;;7.07;4.05;;;;;;;;;;4930064;29;20576;-92
2023/09/08 11:03:47;;;;;;;10.80;5.05;;;;;;;;;;4926069;29;20131;-90
2023/09/08 11:06:17;;;;;;;8.18;4.55;;;;;;;;;;4921941;29;20058;-89
2023/09/08 11:08:46;;;;;;;8.70;4.50;;;;;;;;;;4921462;29;20043;-90
2023/09/08 11:11:16;;;;;;;7.95;5.25;;;;;;;;;;4921927;28;20063;-88
2023/09/08 11:13:46;;;;;;;10.32;5.32;;;;;;;;;;4922280;29;20523;-89
2023/09/08 11:16:16;;;;;;;6.57;4.40;;;;;;;;;;4926677;29;20051;-90
2023/09/08 11:18:44;;;;;;;8.30;5.15;;;;;;;;;;4924499;29;20580;-90
2023/09/08 11:21:14;;;;;;;5.93;4.28;;;;;;;;;;4924909;28;20052;-89
2023/09/08 11:23:43;;;;;;;10.98;4.55;;;;;;;;;;4917669;29;20564;-88
2023/09/08 11:26:13;;;;;;;8.05;4.38;;;;;;;;;;4922957;29;20825;-88
2023/09/08 11:28:42;;;;;;;7.47;4.72;;;;;;;;;;4926850;29;20066;-87
2023/09/08 11:31:14;;;;;;;6.35;4.22;;;;;;;;;;4921573;28;20126;-89
2023/09/08 11:33:42;;;;;;;13.18;5.28;;;;;;;;;;4925298;29;20059;-86
2023/09/08 11:36:15;;;;;;;10.07;5.18;;;;;;;;;;4924819;29;20329;-86
2023/09/08 11:38:46;;;;;;;8.00;4.80;;;;;;;;;;4923385;29;20067;-88
2023/09/08 11:41:14;;;;;;;7.38;4.07;;;;;;;;;;4921034;28;20043;-86
2023/09/08 11:43:43;;;;;;;8.05;4.72;;;;;;;;;;4924915;29;20078;-84
2023/09/08 11:46:14;;;;;;;7.63;3.83;;;;;;;;;;4924043;29;20061;-85
2023/09/08 11:48:44;;;;;;;7.57;4.63;;;;;;;;;;4920753;29;20040;-86
2023/09/08 11:51:13;;;;;;;5.85;4.32;;;;;;;;;;4921225;28;20627;-86
2023/09/08 11:53:41;;;;;;;9.38;4.45;;;;;;;;;;4927128;29;20067;-86
2023/09/08 11:56:10;;;;;;;7.05;3.67;;;;;;;;;;4922732;29;20060;-87
2023/09/08 11:58:38;;;;;;;8.20;4.10;;;;;;;;;;4922120;29;20076;-86
2023/09/08 12:01:07;;;;;;;7.10;4.00;;;;;;;;;;4918761;29;20043;-87
2023/09/08 12:03:36;;;;;;;11.00;4.35;;;;;;;;;;4919152;29;20051;-86
2023/09/08 12:06:06;;;;;;;5.50;4.40;;;;;;;;;;4922102;29;20052;-85
2023/09/08 12:08:35;;;;;;;7.80;4.28;;;;;;;;;;4923277;29;20304;-88
2023/09/08 12:11:04;;;;;;;5.70;4.30;;;;;;;;;;4920284;29;20047;-86
2023/09/08 12:13:32;;;;;;;7.65;4.65;;;;;;;;;;4923065;29;20059;-85
2023/09/08 12:16:01;;;;;;;6.78;4.93;;;;;;;;;;4922826;29;20051;-84
2023/09/08 12:18:39;;;;;;;11.35;4.43;;;;;;;;;;4923591;29;20424;-84
2023/09/08 12:21:09;;;;;;;6.63;4.40;;;;;;;;;;4921994;28;20421;-86
2023/09/08 12:23:49;;;;;;;6.05;4.25;;;;;;;;;;4921124;29;20401;-84
2023/09/08 12:26:17;;;;;;;7.88;4.53;;;;;;;;;;4923037;29;20051;-86
2023/09/08 12:28:46;;;;;;;6.45;4.50;;;;;;;;;;4924351;29;20727;-85
2023/09/08 12:31:16;;;;;;;5.88;3.92;;;;;;;;;;4922537;28;20465;-84
2023/09/08 12:33:44;;;;;;;6.20;3.88;;;;;;;;;;4918246;29;20070;-85
2023/09/08 12:36:15;;;;;;;5.97;4.25;;;;;;;;;;4919154;29;20130;-85
2023/09/08 12:38:49;;;;;;;7.35;4.32;;;;;;;;;;4922731;29;20055;-85
2023/09/08 12:41:17;;;;;;;9.45;4.22;;;;;;;;;;4927420;28;20102;-86
2023/09/08 12:43:46;;;;;;;5.78;4.40;;;;;;;;;;4925417;29;20171;-85
2023/09/08 12:46:18;;;;;;;5.90;4.20;;;;;;;;;;4924526;29;20473;-85
2023/09/08 12:48:47;;;;;;;8.35;4.20;;;;;;;;;;4922630;29;20081;-84
2023/09/08 12:51:17;;;;;;;8.13;4.57;;;;;;;;;;4924666;28;20047;-85
2023/09/08 12:53:45;;;;;;;5.88;4.13;;;;;;;;;;4919596;29;20059;-85
2023/09/08 12:56:13;;;;;;;6.88;4.20;;;;;;;;;;4918333;29;20060;-87
2023/09/08 12:58:42;;;;;;;5.88;4.05;;;;;;;;;;4922751;29;20098;-86
2023/09/08 13:01:10;;;;;;;6.97;4.60;;;;;;;;;;4923369;28;20055;-85
2023/09/08 13:03:39;;;;;;;5.38;4.18;;;;;;;;;;4924379;29;20056;-85
2023/09/08 13:06:07;;;;;;;5.90;4.00;;;;;;;;;;4917901;29;20047;-84
2023/09/08 13:08:37;;;;;;;4.90;3.63;;;;;;;;;;4921331;29;20103;-85
2023/09/08 13:11:06;;;;;;;6.13;4.00;;;;;;;;;;4919013;29;20055;-86
2023/09/08 13:13:34;;;;;;;9.45;4.60;;;;;;;;;;4923000;29;20058;-85
2023/09/08 13:16:03;;;;;;;7.30;4.45;;;;;;;;;;4921955;29;20040;-86
2023/09/08 13:18:35;;;;;;;6.28;4.22;;;;;;;;;;4920314;29;20102;-86
2023/09/08 13:21:04;;;;;;;8.60;4.75;;;;;;;;;;4922426;28;20052;-85
2023/09/08 13:23:33;;;;;;;6.68;4.10;;;;;;;;;;4924774;29;20519;-85
2023/09/08 13:26:02;;;;;;;10.05;4.25;;;;;;;;;;4921270;29;20055;-87
2023/09/08 13:28:31;;;;;;;9.00;4.15;;;;;;;;;;4921086;29;20055;-86
2023/09/08 13:31:00;;;;;;;7.20;4.18;;;;;;;;;;4913719;28;20044;-85
2023/09/08 13:33:28;;;;;;;7.30;4.50;;;;;;;;;;4921978;29;20056;-85
2023/09/08 13:35:58;;;;;;;7.63;4.13;;;;;;;;;;4920916;29;20040;-86
2023/09/08 13:38:26;;;;;;;6.22;4.45;;;;;;;;;;4920462;29;20044;-85
2023/09/08 13:40:55;;;;;;;5.18;4.13;;;;;;;;;;4925356;29;20048;-86
2023/09/08 13:43:25;;;;;;;5.00;3.95;;;;;;;;;;4911918;29;20737;-85
2023/09/08 13:45:53;;;;;;;5.25;4.25;;;;;;;;;;4924706;29;20312;-86
2023/09/08 13:48:22;;;;;;;5.78;4.07;;;;;;;;;;4920924;29;20130;-86
2023/09/08 13:50:53;;;;;;;9.30;4.93;;;;;;;;;;4922063;29;20063;-85
2023/09/08 13:53:22;;;;;;;6.68;4.55;;;;;;;;;;4926388;29;20043;-86
2023/09/08 13:56:01;;;;;;;6.18;4.10;;;;;;;;;;4922849;29;20371;-88
2023/09/08 13:58:33;;;;;;;5.72;4.30;;;;;;;;;;4929988;29;20055;-85
2023/09/08 14:01:17;;;;;;;6.45;4.18;;;;;;;;;;4927342;28;20048;-86
2023/09/08 14:03:51;;;;;;;4.70;3.92;;;;;;;;;;4920536;29;20166;-86
2023/09/08 14:06:23;;;;;;;7.00;4.35;;;;;;;;;;4922302;29;20055;-88
2023/09/08 14:08:57;;;;;;;5.40;4.03;;;;;;;;;;4923485;29;20067;-86
2023/09/08 14:11:29;;;;;;;5.97;4.20;;;;;;;;;;4921099;28;20120;-87
2023/09/08 14:14:19;;;;;;;6.00;4.30;;;;;;;;;;4921838;29;20088;-86
2023/09/08 14:16:47;;;;;;;5.65;4.07;;;;;;;;;;4917922;29;20063;-87
2023/09/08 14:19:16;;;;;;;6.90;4.00;;;;;;;;;;4919516;29;20050;-89
2023/09/08 14:21:44;;;;;;;6.35;3.83;;;;;;;;;;4924355;28;20051;-88
2023/09/08 14:24:13;;;;;;;5.22;4.20;;;;;;;;;;4925910;29;20048;-87
2023/09/08 14:26:41;;;;;;;5.80;3.70;;;;;;;;;;4925161;29;20056;-88
2023/09/08 14:29:10;;;;;;;4.68;3.85;;;;;;;;;;4914926;29;20052;-86
2023/09/08 14:31:40;;;;;;;5.47;3.88;;;;;;;;;;4920810;28;20063;-89
2023/09/08 14:34:08;;;;;;;8.07;4.88;;;;;;;;;;4924417;29;20460;-88
2023/09/08 14:36:37;;;;;;;7.13;4.50;;;;;;;;;;4922224;29;20604;-90
2023/09/08 14:39:05;;;;;;;7.78;4.35;;;;;;;;;;4921248;29;20059;-88
2023/09/08 14:41:34;;;;;;;6.93;4.40;;;;;;;;;;4917706;28;20086;-87
2023/09/08 14:44:02;;;;;;;7.80;4.55;;;;;;;;;;4925252;29;20048;-86
2023/09/08 14:46:31;;;;;;;6.10;4.25;;;;;;;;;;4928290;29;20055;-88
2023/09/08 14:49:02;;;;;;;6.68;4.30;;;;;;;;;;4928548;29;20055;-87
2023/09/08 14:51:30;;;;;;;7.82;4.72;;;;;;;;;;4927711;28;20060;-89
2023/09/08 14:53:59;;;;;;;6.47;4.53;;;;;;;;;;4924857;29;20300;-87